sensor_id;sensor_type;location;lat;lon;timestamp;temperature;humidity
22738;DHT22;11536;50.860;4.286;2022-09-13T00:00:56;20.50;99.90
22738;DHT22;11536;50.860;4.286;2022-09-13T00:03:23;20.50;99.90
22738;DHT22;11536;50.860;4.286;2022-09-13T00:05:48;20.50;99.90
22738;DHT22;11536;50.860;4.286;2022-09-13T00:08:15;20.50;99.90
22738;DHT22;11536;50.860;4.286;2022-09-13T00:10:42;20.50;99.90
22738;DHT22;11536;50.860;4.286;2022-09-13T00:13:09;20.50;99.90
22738;DHT22;11536;50.860;4.286;2022-09-13T00:15:36;20.50;99.90
22738;DHT22;11536;50.860;4.286;2022-09-13T00:18:02;20.50;99.90
22738;DHT22;11536;50.860;4.286;2022-09-13T00:20:27;20.50;99.90
22738;DHT22;11536;50.860;4.286;2022-09-13T00:22:53;20.50;99.90
22738;DHT22;11536;50.860;4.286;2022-09-13T00:25:19;20.50;99.90
22738;DHT22;11536;50.860;4.286;2022-09-13T00:27:44;20.50;99.90
22738;DHT22;11536;50.860;4.286;2022-09-13T00:30:11;20.50;99.90
22738;DHT22;11536;50.860;4.286;2022-09-13T00:32:37;20.50;99.90
22738;DHT22;11536;50.860;4.286;2022-09-13T00:35:04;20.60;99.90
22738;DHT22;11536;50.860;4.286;2022-09-13T00:37:31;20.50;99.90
22738;DHT22;11536;50.860;4.286;2022-09-13T00:39:58;20.50;99.90
22738;DHT22;11536;50.860;4.286;2022-09-13T00:42:28;20.50;99.90
22738;DHT22;11536;50.860;4.286;2022-09-13T00:47:33;20.50;99.90
22738;DHT22;11536;50.860;4.286;2022-09-13T00:50:21;20.60;99.90
22738;DHT22;11536;50.860;4.286;2022-09-13T00:53:15;20.50;99.90
22738;DHT22;11536;50.860;4.286;2022-09-13T00:55:47;20.60;99.90
22738;DHT22;11536;50.860;4.286;2022-09-13T00:58:27;20.50;99.90
22738;DHT22;11536;50.860;4.286;2022-09-13T01:00:55;20.50;99.90
22738;DHT22;11536;50.860;4.286;2022-09-13T01:03:26;20.50;99.90
22738;DHT22;11536;50.860;4.286;2022-09-13T01:05:56;20.50;99.90
22738;DHT22;11536;50.860;4.286;2022-09-13T01:08:24;20.50;99.90
22738;DHT22;11536;50.860;4.286;2022-09-13T01:10:51;20.50;99.90
22738;DHT22;11536;50.860;4.286;2022-09-13T01:13:22;20.50;99.90
22738;DHT22;11536;50.860;4.286;2022-09-13T01:15:48;20.60;99.90
22738;DHT22;11536;50.860;4.286;2022-09-13T01:18:15;20.60;99.90
22738;DHT22;11536;50.860;4.286;2022-09-13T01:26:33;20.50;99.90
22738;DHT22;11536;50.860;4.286;2022-09-13T01:29:32;20.50;99.90
22738;DHT22;11536;50.860;4.286;2022-09-13T01:43:30;20.50;99.90
22738;DHT22;11536;50.860;4.286;2022-09-13T01:46:08;20.40;99.90
22738;DHT22;11536;50.860;4.286;2022-09-13T02:02:12;20.40;99.90
22738;DHT22;11536;50.860;4.286;2022-09-13T02:04:45;20.40;99.90
22738;DHT22;11536;50.860;4.286;2022-09-13T02:07:16;20.30;99.90
22738;DHT22;11536;50.860;4.286;2022-09-13T02:09:48;20.30;99.90
22738;DHT22;11536;50.860;4.286;2022-09-13T02:12:21;20.30;99.90
22738;DHT22;11536;50.860;4.286;2022-09-13T02:15:03;20.30;99.90
22738;DHT22;11536;50.860;4.286;2022-09-13T02:17:33;20.30;99.90
22738;DHT22;11536;50.860;4.286;2022-09-13T02:20:07;20.30;99.90
22738;DHT22;11536;50.860;4.286;2022-09-13T02:22:40;20.20;99.90
22738;DHT22;11536;50.860;4.286;2022-09-13T02:25:11;20.20;99.90
22738;DHT22;11536;50.860;4.286;2022-09-13T02:27:40;20.20;99.90
22738;DHT22;11536;50.860;4.286;2022-09-13T02:30:08;20.20;99.90
22738;DHT22;11536;50.860;4.286;2022-09-13T02:35:52;20.20;99.90
22738;DHT22;11536;50.860;4.286;2022-09-13T02:38:30;20.20;99.90
22738;DHT22;11536;50.860;4.286;2022-09-13T02:41:12;20.20;99.90
22738;DHT22;11536;50.860;4.286;2022-09-13T02:43:42;20.20;99.90
22738;DHT22;11536;50.860;4.286;2022-09-13T02:49:16;20.10;99.90
22738;DHT22;11536;50.860;4.286;2022-09-13T02:52:08;20.10;99.90
22738;DHT22;11536;50.860;4.286;2022-09-13T02:54:56;20.10;99.90
22738;DHT22;11536;50.860;4.286;2022-09-13T02:57:28;20.10;99.90
22738;DHT22;11536;50.860;4.286;2022-09-13T02:59:55;20.10;99.90
22738;DHT22;11536;50.860;4.286;2022-09-13T03:02:24;20.10;99.90
22738;DHT22;11536;50.860;4.286;2022-09-13T03:04:50;20.10;99.90
22738;DHT22;11536;50.860;4.286;2022-09-13T03:07:16;20.10;99.90
22738;DHT22;11536;50.860;4.286;2022-09-13T03:09:50;20.10;99.90
22738;DHT22;11536;50.860;4.286;2022-09-13T03:12:38;20.10;99.90
22738;DHT22;11536;50.860;4.286;2022-09-13T03:31:46;20.00;99.90
22738;DHT22;11536;50.860;4.286;2022-09-13T03:37:10;20.00;99.90
22738;DHT22;11536;50.860;4.286;2022-09-13T03:39:49;19.90;99.90
22738;DHT22;11536;50.860;4.286;2022-09-13T03:42:45;19.90;99.90
22738;DHT22;11536;50.860;4.286;2022-09-13T03:45:14;19.90;99.90
22738;DHT22;11536;50.860;4.286;2022-09-13T03:47:41;20.00;99.90
22738;DHT22;11536;50.860;4.286;2022-09-13T03:50:09;19.90;99.90
22738;DHT22;11536;50.860;4.286;2022-09-13T03:52:39;19.90;99.90
22738;DHT22;11536;50.860;4.286;2022-09-13T03:55:04;20.00;99.90
22738;DHT22;11536;50.860;4.286;2022-09-13T03:57:30;20.00;99.90
22738;DHT22;11536;50.860;4.286;2022-09-13T03:59:56;20.00;99.90
22738;DHT22;11536;50.860;4.286;2022-09-13T04:02:23;20.00;99.90
22738;DHT22;11536;50.860;4.286;2022-09-13T04:04:50;20.00;99.90
22738;DHT22;11536;50.860;4.286;2022-09-13T04:07:21;20.00;99.90
22738;DHT22;11536;50.860;4.286;2022-09-13T04:09:47;20.00;99.90
22738;DHT22;11536;50.860;4.286;2022-09-13T04:12:14;20.00;99.90
22738;DHT22;11536;50.860;4.286;2022-09-13T04:14:40;20.00;99.90
22738;DHT22;11536;50.860;4.286;2022-09-13T04:17:08;20.00;99.90
22738;DHT22;11536;50.860;4.286;2022-09-13T04:19:34;20.00;99.90
22738;DHT22;11536;50.860;4.286;2022-09-13T04:21:59;20.00;99.90
22738;DHT22;11536;50.860;4.286;2022-09-13T04:24:26;20.00;99.90
22738;DHT22;11536;50.860;4.286;2022-09-13T04:26:52;20.00;99.90
22738;DHT22;11536;50.860;4.286;2022-09-13T04:29:19;20.00;99.90
22738;DHT22;11536;50.860;4.286;2022-09-13T04:31:46;20.00;99.90
22738;DHT22;11536;50.860;4.286;2022-09-13T04:34:12;20.00;99.90
22738;DHT22;11536;50.860;4.286;2022-09-13T04:36:38;20.00;99.90
22738;DHT22;11536;50.860;4.286;2022-09-13T04:39:04;20.00;99.90
22738;DHT22;11536;50.860;4.286;2022-09-13T04:41:30;20.00;99.90
22738;DHT22;11536;50.860;4.286;2022-09-13T04:43:59;20.00;99.90
22738;DHT22;11536;50.860;4.286;2022-09-13T04:46:26;20.00;99.90
22738;DHT22;11536;50.860;4.286;2022-09-13T04:48:52;20.00;99.90
22738;DHT22;11536;50.860;4.286;2022-09-13T04:51:18;20.00;99.90
22738;DHT22;11536;50.860;4.286;2022-09-13T04:53:50;20.00;99.90
22738;DHT22;11536;50.860;4.286;2022-09-13T04:56:17;20.00;99.90
22738;DHT22;11536;50.860;4.286;2022-09-13T04:58:44;19.90;99.90
22738;DHT22;11536;50.860;4.286;2022-09-13T05:01:10;19.90;99.90
22738;DHT22;11536;50.860;4.286;2022-09-13T05:03:36;19.90;99.90
22738;DHT22;11536;50.860;4.286;2022-09-13T05:06:03;19.90;99.90
22738;DHT22;11536;50.860;4.286;2022-09-13T05:08:30;19.90;99.90
22738;DHT22;11536;50.860;4.286;2022-09-13T05:10:55;19.90;99.90
22738;DHT22;11536;50.860;4.286;2022-09-13T05:13:21;19.90;99.90
22738;DHT22;11536;50.860;4.286;2022-09-13T05:15:46;19.90;99.90
22738;DHT22;11536;50.860;4.286;2022-09-13T05:18:12;19.90;99.90
22738;DHT22;11536;50.860;4.286;2022-09-13T05:20:37;19.90;99.90
22738;DHT22;11536;50.860;4.286;2022-09-13T05:23:03;19.90;99.90
22738;DHT22;11536;50.860;4.286;2022-09-13T05:25:29;19.90;99.90
22738;DHT22;11536;50.860;4.286;2022-09-13T05:27:54;19.90;99.90
22738;DHT22;11536;50.860;4.286;2022-09-13T05:30:20;19.90;99.90
22738;DHT22;11536;50.860;4.286;2022-09-13T05:32:46;19.90;99.90
22738;DHT22;11536;50.860;4.286;2022-09-13T05:35:11;19.90;99.90
22738;DHT22;11536;50.860;4.286;2022-09-13T05:37:38;19.90;99.90
22738;DHT22;11536;50.860;4.286;2022-09-13T05:40:04;19.90;99.90
22738;DHT22;11536;50.860;4.286;2022-09-13T05:42:30;19.90;99.90
22738;DHT22;11536;50.860;4.286;2022-09-13T05:44:55;20.00;99.90
22738;DHT22;11536;50.860;4.286;2022-09-13T05:47:21;20.00;99.90
22738;DHT22;11536;50.860;4.286;2022-09-13T05:49:47;20.00;99.90
22738;DHT22;11536;50.860;4.286;2022-09-13T05:52:13;20.00;99.90
22738;DHT22;11536;50.860;4.286;2022-09-13T05:54:38;20.00;99.90
22738;DHT22;11536;50.860;4.286;2022-09-13T05:57:04;20.00;99.90
22738;DHT22;11536;50.860;4.286;2022-09-13T05:59:30;20.00;99.90
22738;DHT22;11536;50.860;4.286;2022-09-13T06:01:56;19.90;99.90
22738;DHT22;11536;50.860;4.286;2022-09-13T06:04:22;19.90;99.90
22738;DHT22;11536;50.860;4.286;2022-09-13T06:06:48;20.00;99.90
22738;DHT22;11536;50.860;4.286;2022-09-13T06:09:13;20.00;99.90
22738;DHT22;11536;50.860;4.286;2022-09-13T06:11:39;20.00;99.90
22738;DHT22;11536;50.860;4.286;2022-09-13T06:14:05;20.00;99.90
22738;DHT22;11536;50.860;4.286;2022-09-13T06:16:30;20.00;99.90
22738;DHT22;11536;50.860;4.286;2022-09-13T06:18:57;20.00;99.90
22738;DHT22;11536;50.860;4.286;2022-09-13T06:21:23;20.00;99.90
22738;DHT22;11536;50.860;4.286;2022-09-13T06:23:50;20.00;99.90
22738;DHT22;11536;50.860;4.286;2022-09-13T06:26:19;20.00;99.90
22738;DHT22;11536;50.860;4.286;2022-09-13T06:28:49;20.00;99.90
22738;DHT22;11536;50.860;4.286;2022-09-13T06:31:17;20.00;99.90
22738;DHT22;11536;50.860;4.286;2022-09-13T06:33:44;20.00;99.90
22738;DHT22;11536;50.860;4.286;2022-09-13T06:36:13;20.00;99.90
22738;DHT22;11536;50.860;4.286;2022-09-13T06:38:48;20.00;99.90
22738;DHT22;11536;50.860;4.286;2022-09-13T06:41:16;20.00;99.90
22738;DHT22;11536;50.860;4.286;2022-09-13T06:43:46;20.00;99.90
22738;DHT22;11536;50.860;4.286;2022-09-13T06:46:16;20.10;99.90
22738;DHT22;11536;50.860;4.286;2022-09-13T06:48:43;20.00;99.90
22738;DHT22;11536;50.860;4.286;2022-09-13T06:51:15;20.10;99.90
22738;DHT22;11536;50.860;4.286;2022-09-13T06:53:41;20.10;99.90
22738;DHT22;11536;50.860;4.286;2022-09-13T06:56:13;20.10;99.90
22738;DHT22;11536;50.860;4.286;2022-09-13T06:58:41;20.10;99.90
22738;DHT22;11536;50.860;4.286;2022-09-13T07:01:09;20.10;99.90
22738;DHT22;11536;50.860;4.286;2022-09-13T07:03:41;20.10;99.90
22738;DHT22;11536;50.860;4.286;2022-09-13T07:06:15;20.10;99.90
22738;DHT22;11536;50.860;4.286;2022-09-13T07:08:43;20.20;99.90
22738;DHT22;11536;50.860;4.286;2022-09-13T07:11:11;20.20;99.90
22738;DHT22;11536;50.860;4.286;2022-09-13T07:13:38;20.20;99.90
22738;DHT22;11536;50.860;4.286;2022-09-13T07:16:06;20.30;99.90
22738;DHT22;11536;50.860;4.286;2022-09-13T07:18:32;20.30;99.90
22738;DHT22;11536;50.860;4.286;2022-09-13T07:21:06;20.30;99.90
22738;DHT22;11536;50.860;4.286;2022-09-13T07:23:33;20.30;99.90
22738;DHT22;11536;50.860;4.286;2022-09-13T07:25:59;20.40;99.90
22738;DHT22;11536;50.860;4.286;2022-09-13T07:28:37;20.40;99.90
22738;DHT22;11536;50.860;4.286;2022-09-13T07:33:30;20.40;99.90
22738;DHT22;11536;50.860;4.286;2022-09-13T07:35:56;20.50;99.90
22738;DHT22;11536;50.860;4.286;2022-09-13T07:38:22;20.50;99.90
22738;DHT22;11536;50.860;4.286;2022-09-13T07:40:58;20.50;99.90
22738;DHT22;11536;50.860;4.286;2022-09-13T07:43:25;20.60;99.90
22738;DHT22;11536;50.860;4.286;2022-09-13T07:46:17;20.60;99.90
22738;DHT22;11536;50.860;4.286;2022-09-13T07:48:44;20.60;99.90
22738;DHT22;11536;50.860;4.286;2022-09-13T07:51:25;20.60;99.90
22738;DHT22;11536;50.860;4.286;2022-09-13T07:53:54;20.60;99.90
22738;DHT22;11536;50.860;4.286;2022-09-13T07:56:23;20.60;99.90
22738;DHT22;11536;50.860;4.286;2022-09-13T07:58:50;20.60;99.90
22738;DHT22;11536;50.860;4.286;2022-09-13T08:01:33;20.70;99.90
22738;DHT22;11536;50.860;4.286;2022-09-13T08:04:00;20.80;99.90
22738;DHT22;11536;50.860;4.286;2022-09-13T08:06:28;20.70;99.90
22738;DHT22;11536;50.860;4.286;2022-09-13T08:08:55;20.80;99.90
22738;DHT22;11536;50.860;4.286;2022-09-13T08:11:29;20.80;99.90
22738;DHT22;11536;50.860;4.286;2022-09-13T08:13:55;20.80;99.90
22738;DHT22;11536;50.860;4.286;2022-09-13T08:16:22;20.90;99.90
22738;DHT22;11536;50.860;4.286;2022-09-13T08:18:50;21.00;99.90
22738;DHT22;11536;50.860;4.286;2022-09-13T08:21:16;20.90;99.90
22738;DHT22;11536;50.860;4.286;2022-09-13T08:23:42;21.00;99.90
22738;DHT22;11536;50.860;4.286;2022-09-13T08:26:08;21.00;99.90
22738;DHT22;11536;50.860;4.286;2022-09-13T08:28:36;21.00;99.90
22738;DHT22;11536;50.860;4.286;2022-09-13T08:31:03;21.10;99.90
22738;DHT22;11536;50.860;4.286;2022-09-13T08:33:29;21.10;99.90
22738;DHT22;11536;50.860;4.286;2022-09-13T08:35:55;21.10;99.90
22738;DHT22;11536;50.860;4.286;2022-09-13T08:38:22;21.20;99.90
22738;DHT22;11536;50.860;4.286;2022-09-13T08:40:57;21.20;99.90
22738;DHT22;11536;50.860;4.286;2022-09-13T08:46:46;21.20;99.90
22738;DHT22;11536;50.860;4.286;2022-09-13T08:49:23;21.20;99.90
22738;DHT22;11536;50.860;4.286;2022-09-13T08:51:53;21.30;99.90
22738;DHT22;11536;50.860;4.286;2022-09-13T08:54:20;21.20;99.90
22738;DHT22;11536;50.860;4.286;2022-09-13T08:57:08;21.30;99.90
22738;DHT22;11536;50.860;4.286;2022-09-13T09:07:57;21.40;99.90
22738;DHT22;11536;50.860;4.286;2022-09-13T09:10:31;21.40;99.90
22738;DHT22;11536;50.860;4.286;2022-09-13T09:13:07;21.50;99.90
22738;DHT22;11536;50.860;4.286;2022-09-13T09:15:43;21.50;99.90
22738;DHT22;11536;50.860;4.286;2022-09-13T09:20:45;21.60;99.90
22738;DHT22;11536;50.860;4.286;2022-09-13T09:25:49;21.70;99.90
22738;DHT22;11536;50.860;4.286;2022-09-13T09:28:17;21.70;99.90
22738;DHT22;11536;50.860;4.286;2022-09-13T09:30:59;21.80;99.90
22738;DHT22;11536;50.860;4.286;2022-09-13T09:38:59;22.00;99.90
22738;DHT22;11536;50.860;4.286;2022-09-13T09:41:32;22.10;99.90
22738;DHT22;11536;50.860;4.286;2022-09-13T09:44:19;22.20;99.90
22738;DHT22;11536;50.860;4.286;2022-09-13T09:46:54;22.30;99.90
22738;DHT22;11536;50.860;4.286;2022-09-13T09:49:41;22.30;99.90
22738;DHT22;11536;50.860;4.286;2022-09-13T09:52:41;22.40;99.90
22738;DHT22;11536;50.860;4.286;2022-09-13T09:58:05;22.40;99.90
22738;DHT22;11536;50.860;4.286;2022-09-13T10:00:37;22.50;99.90
22738;DHT22;11536;50.860;4.286;2022-09-13T10:03:19;22.50;99.90
22738;DHT22;11536;50.860;4.286;2022-09-13T10:05:46;22.60;99.90
22738;DHT22;11536;50.860;4.286;2022-09-13T10:08:33;22.70;99.90
22738;DHT22;11536;50.860;4.286;2022-09-13T10:10:59;22.70;99.90
22738;DHT22;11536;50.860;4.286;2022-09-13T10:13:27;22.70;99.90
22738;DHT22;11536;50.860;4.286;2022-09-13T10:16:01;22.80;99.90
22738;DHT22;11536;50.860;4.286;2022-09-13T10:18:31;22.80;99.90
22738;DHT22;11536;50.860;4.286;2022-09-13T10:21:08;22.90;99.90
22738;DHT22;11536;50.860;4.286;2022-09-13T10:23:45;22.90;99.90
22738;DHT22;11536;50.860;4.286;2022-09-13T10:26:22;23.00;99.90
22738;DHT22;11536;50.860;4.286;2022-09-13T10:31:36;23.00;99.90
22738;DHT22;11536;50.860;4.286;2022-09-13T10:34:13;23.10;99.90
22738;DHT22;11536;50.860;4.286;2022-09-13T10:37:10;23.20;99.90
22738;DHT22;11536;50.860;4.286;2022-09-13T10:39:36;23.20;99.90
22738;DHT22;11536;50.860;4.286;2022-09-13T10:42:07;23.30;99.90
22738;DHT22;11536;50.860;4.286;2022-09-13T10:44:44;23.30;99.90
22738;DHT22;11536;50.860;4.286;2022-09-13T10:47:26;23.30;99.90
22738;DHT22;11536;50.860;4.286;2022-09-13T10:49:56;23.30;99.90
22738;DHT22;11536;50.860;4.286;2022-09-13T11:00:15;23.30;99.90
22738;DHT22;11536;50.860;4.286;2022-09-13T11:05:32;23.40;99.90
22738;DHT22;11536;50.860;4.286;2022-09-13T11:08:15;23.40;99.90
22738;DHT22;11536;50.860;4.286;2022-09-13T11:22:50;23.50;99.90
22738;DHT22;11536;50.860;4.286;2022-09-13T11:25:37;23.60;99.90
22738;DHT22;11536;50.860;4.286;2022-09-13T11:39:15;23.60;99.90
22738;DHT22;11536;50.860;4.286;2022-09-13T11:55:50;23.80;99.90
22738;DHT22;11536;50.860;4.286;2022-09-13T12:01:09;23.80;99.90
22738;DHT22;11536;50.860;4.286;2022-09-13T12:03:56;23.90;99.90
22738;DHT22;11536;50.860;4.286;2022-09-13T12:06:36;23.80;99.90
22738;DHT22;11536;50.860;4.286;2022-09-13T12:09:22;23.80;99.90
22738;DHT22;11536;50.860;4.286;2022-09-13T12:11:53;23.90;99.90
22738;DHT22;11536;50.860;4.286;2022-09-13T12:14:25;23.90;99.90
22738;DHT22;11536;50.860;4.286;2022-09-13T12:16:58;23.90;99.90
22738;DHT22;11536;50.860;4.286;2022-09-13T12:19:39;23.90;99.90
22738;DHT22;11536;50.860;4.286;2022-09-13T12:22:07;23.90;99.90
22738;DHT22;11536;50.860;4.286;2022-09-13T12:29:46;24.00;99.90
22738;DHT22;11536;50.860;4.286;2022-09-13T12:32:15;24.00;99.90
22738;DHT22;11536;50.860;4.286;2022-09-13T12:42:58;23.90;99.90
22738;DHT22;11536;50.860;4.286;2022-09-13T12:53:42;23.90;99.90
22738;DHT22;11536;50.860;4.286;2022-09-13T13:01:32;23.90;99.90
22738;DHT22;11536;50.860;4.286;2022-09-13T13:04:08;23.90;99.90
22738;DHT22;11536;50.860;4.286;2022-09-13T13:06:53;23.90;99.90
22738;DHT22;11536;50.860;4.286;2022-09-13T13:11:53;23.90;99.90
22738;DHT22;11536;50.860;4.286;2022-09-13T13:14:45;23.90;99.90
22738;DHT22;11536;50.860;4.286;2022-09-13T13:17:34;23.90;99.90
22738;DHT22;11536;50.860;4.286;2022-09-13T13:23:38;23.80;99.90
22738;DHT22;11536;50.860;4.286;2022-09-13T13:34:00;23.80;99.90
22738;DHT22;11536;50.860;4.286;2022-09-13T13:36:45;23.80;99.90
22738;DHT22;11536;50.860;4.286;2022-09-13T13:46:45;23.70;99.90
22738;DHT22;11536;50.860;4.286;2022-09-13T13:57:31;23.50;99.90
22738;DHT22;11536;50.860;4.286;2022-09-13T14:00:24;23.50;99.90
22738;DHT22;11536;50.860;4.286;2022-09-13T14:05:41;23.50;99.90
22738;DHT22;11536;50.860;4.286;2022-09-13T14:08:43;23.50;99.90
22738;DHT22;11536;50.860;4.286;2022-09-13T14:13:59;23.50;99.90
22738;DHT22;11536;50.860;4.286;2022-09-13T14:16:37;23.40;99.90
22738;DHT22;11536;50.860;4.286;2022-09-13T14:21:39;23.40;99.90
22738;DHT22;11536;50.860;4.286;2022-09-13T14:26:40;23.40;99.90
22738;DHT22;11536;50.860;4.286;2022-09-13T14:29:07;23.40;99.90
22738;DHT22;11536;50.860;4.286;2022-09-13T14:31:33;23.40;99.90
22738;DHT22;11536;50.860;4.286;2022-09-13T14:33:58;23.50;99.90
22738;DHT22;11536;50.860;4.286;2022-09-13T14:36:24;23.50;99.90
22738;DHT22;11536;50.860;4.286;2022-09-13T14:38:56;23.40;99.90
22738;DHT22;11536;50.860;4.286;2022-09-13T14:41:35;23.40;99.90
22738;DHT22;11536;50.860;4.286;2022-09-13T14:44:23;23.40;99.90
22738;DHT22;11536;50.860;4.286;2022-09-13T14:46:57;23.40;99.90
22738;DHT22;11536;50.860;4.286;2022-09-13T14:49:26;23.40;99.90
22738;DHT22;11536;50.860;4.286;2022-09-13T14:52:01;23.30;99.90
22738;DHT22;11536;50.860;4.286;2022-09-13T14:54:45;23.30;99.90
22738;DHT22;11536;50.860;4.286;2022-09-13T14:57:29;23.30;99.90
22738;DHT22;11536;50.860;4.286;2022-09-13T15:00:14;23.30;99.90
22738;DHT22;11536;50.860;4.286;2022-09-13T15:02:53;23.30;99.90
22738;DHT22;11536;50.860;4.286;2022-09-13T15:05:26;23.20;99.90
22738;DHT22;11536;50.860;4.286;2022-09-13T15:07:52;23.20;99.90
22738;DHT22;11536;50.860;4.286;2022-09-13T15:10:22;23.30;99.90
22738;DHT22;11536;50.860;4.286;2022-09-13T15:17:59;23.20;99.90
22738;DHT22;11536;50.860;4.286;2022-09-13T15:26:19;23.30;99.90
22738;DHT22;11536;50.860;4.286;2022-09-13T15:28:53;23.30;99.90
22738;DHT22;11536;50.860;4.286;2022-09-13T15:31:24;23.30;99.90
22738;DHT22;11536;50.860;4.286;2022-09-13T15:34:30;23.30;99.90
22738;DHT22;11536;50.860;4.286;2022-09-13T15:37:11;23.30;99.90
22738;DHT22;11536;50.860;4.286;2022-09-13T15:39:46;23.30;99.90
22738;DHT22;11536;50.860;4.286;2022-09-13T15:42:16;23.30;99.90
22738;DHT22;11536;50.860;4.286;2022-09-13T15:44:42;23.30;99.90
22738;DHT22;11536;50.860;4.286;2022-09-13T15:47:18;23.30;99.90
22738;DHT22;11536;50.860;4.286;2022-09-13T15:49:49;23.40;99.90
22738;DHT22;11536;50.860;4.286;2022-09-13T15:52:16;23.30;99.90
22738;DHT22;11536;50.860;4.286;2022-09-13T15:54:43;23.30;99.90
22738;DHT22;11536;50.860;4.286;2022-09-13T15:57:21;23.30;99.90
22738;DHT22;11536;50.860;4.286;2022-09-13T15:59:47;23.30;99.90
22738;DHT22;11536;50.860;4.286;2022-09-13T16:02:22;23.30;99.90
22738;DHT22;11536;50.860;4.286;2022-09-13T16:04:48;23.30;99.90
22738;DHT22;11536;50.860;4.286;2022-09-13T16:07:15;23.30;99.90
22738;DHT22;11536;50.860;4.286;2022-09-13T16:09:40;23.30;99.90
22738;DHT22;11536;50.860;4.286;2022-09-13T16:12:06;23.30;99.90
22738;DHT22;11536;50.860;4.286;2022-09-13T16:14:32;23.30;99.90
22738;DHT22;11536;50.860;4.286;2022-09-13T16:17:05;23.30;99.90
22738;DHT22;11536;50.860;4.286;2022-09-13T16:19:31;23.30;99.90
22738;DHT22;11536;50.860;4.286;2022-09-13T16:21:57;23.30;99.90
22738;DHT22;11536;50.860;4.286;2022-09-13T16:24:23;23.20;99.90
22738;DHT22;11536;50.860;4.286;2022-09-13T16:26:48;23.20;99.90
22738;DHT22;11536;50.860;4.286;2022-09-13T16:29:14;23.20;99.90
22738;DHT22;11536;50.860;4.286;2022-09-13T16:31:40;23.20;99.90
22738;DHT22;11536;50.860;4.286;2022-09-13T16:34:05;23.20;99.90
22738;DHT22;11536;50.860;4.286;2022-09-13T16:36:31;23.20;99.90
22738;DHT22;11536;50.860;4.286;2022-09-13T16:38:58;23.10;99.90
22738;DHT22;11536;50.860;4.286;2022-09-13T16:41:24;23.10;99.90
22738;DHT22;11536;50.860;4.286;2022-09-13T16:43:49;23.10;99.90
22738;DHT22;11536;50.860;4.286;2022-09-13T16:46:15;23.10;99.90
22738;DHT22;11536;50.860;4.286;2022-09-13T16:48:44;23.10;99.90
22738;DHT22;11536;50.860;4.286;2022-09-13T16:51:12;23.10;99.90
22738;DHT22;11536;50.860;4.286;2022-09-13T16:53:40;23.00;99.90
22738;DHT22;11536;50.860;4.286;2022-09-13T16:56:14;23.00;99.90
22738;DHT22;11536;50.860;4.286;2022-09-13T16:58:43;23.00;99.90
22738;DHT22;11536;50.860;4.286;2022-09-13T17:01:13;22.90;99.90
22738;DHT22;11536;50.860;4.286;2022-09-13T17:03:39;22.90;99.90
22738;DHT22;11536;50.860;4.286;2022-09-13T17:06:08;22.80;99.90
22738;DHT22;11536;50.860;4.286;2022-09-13T17:08:38;22.80;99.90
22738;DHT22;11536;50.860;4.286;2022-09-13T17:11:06;22.80;99.90
22738;DHT22;11536;50.860;4.286;2022-09-13T17:13:33;22.70;99.90
22738;DHT22;11536;50.860;4.286;2022-09-13T17:15:59;22.70;99.90
22738;DHT22;11536;50.860;4.286;2022-09-13T17:18:25;22.70;99.90
22738;DHT22;11536;50.860;4.286;2022-09-13T17:20:50;22.60;99.90
22738;DHT22;11536;50.860;4.286;2022-09-13T17:23:16;22.60;99.90
22738;DHT22;11536;50.860;4.286;2022-09-13T17:25:44;22.50;99.90
22738;DHT22;11536;50.860;4.286;2022-09-13T17:28:15;22.50;99.90
22738;DHT22;11536;50.860;4.286;2022-09-13T17:30:41;22.50;99.90
22738;DHT22;11536;50.860;4.286;2022-09-13T17:33:07;22.50;99.90
22738;DHT22;11536;50.860;4.286;2022-09-13T17:35:34;22.50;99.90
22738;DHT22;11536;50.860;4.286;2022-09-13T17:38:00;22.50;99.90
22738;DHT22;11536;50.860;4.286;2022-09-13T17:40:26;22.50;99.90
22738;DHT22;11536;50.860;4.286;2022-09-13T17:42:52;22.40;99.90
22738;DHT22;11536;50.860;4.286;2022-09-13T17:45:18;22.40;99.90
22738;DHT22;11536;50.860;4.286;2022-09-13T17:47:50;22.40;99.90
22738;DHT22;11536;50.860;4.286;2022-09-13T17:50:18;22.30;99.90
22738;DHT22;11536;50.860;4.286;2022-09-13T17:52:44;22.30;99.90
22738;DHT22;11536;50.860;4.286;2022-09-13T17:55:11;22.30;99.90
22738;DHT22;11536;50.860;4.286;2022-09-13T17:57:37;22.30;99.90
22738;DHT22;11536;50.860;4.286;2022-09-13T18:00:04;22.30;99.90
22738;DHT22;11536;50.860;4.286;2022-09-13T18:02:31;22.20;99.90
22738;DHT22;11536;50.860;4.286;2022-09-13T18:04:56;22.20;99.90
22738;DHT22;11536;50.860;4.286;2022-09-13T18:07:22;22.20;99.90
22738;DHT22;11536;50.860;4.286;2022-09-13T18:09:47;22.20;99.90
22738;DHT22;11536;50.860;4.286;2022-09-13T18:12:13;22.20;99.90
22738;DHT22;11536;50.860;4.286;2022-09-13T18:14:40;22.20;99.90
22738;DHT22;11536;50.860;4.286;2022-09-13T18:17:06;22.10;99.90
22738;DHT22;11536;50.860;4.286;2022-09-13T18:19:39;22.10;99.90
22738;DHT22;11536;50.860;4.286;2022-09-13T18:22:08;22.10;99.90
22738;DHT22;11536;50.860;4.286;2022-09-13T18:24:34;22.00;99.90
22738;DHT22;11536;50.860;4.286;2022-09-13T18:27:01;22.00;99.90
22738;DHT22;11536;50.860;4.286;2022-09-13T18:29:26;22.00;99.90
22738;DHT22;11536;50.860;4.286;2022-09-13T18:31:57;22.00;99.90
22738;DHT22;11536;50.860;4.286;2022-09-13T18:34:23;22.00;99.90
22738;DHT22;11536;50.860;4.286;2022-09-13T18:36:49;22.00;99.90
22738;DHT22;11536;50.860;4.286;2022-09-13T18:39:16;21.90;99.90
22738;DHT22;11536;50.860;4.286;2022-09-13T18:41:45;21.90;99.90
22738;DHT22;11536;50.860;4.286;2022-09-13T18:44:13;22.00;99.90
22738;DHT22;11536;50.860;4.286;2022-09-13T18:46:39;22.00;99.90
22738;DHT22;11536;50.860;4.286;2022-09-13T18:49:06;22.00;99.90
22738;DHT22;11536;50.860;4.286;2022-09-13T18:51:37;21.90;99.90
22738;DHT22;11536;50.860;4.286;2022-09-13T18:54:04;21.90;99.90
22738;DHT22;11536;50.860;4.286;2022-09-13T18:56:30;21.90;99.90
22738;DHT22;11536;50.860;4.286;2022-09-13T18:58:59;21.90;99.90
22738;DHT22;11536;50.860;4.286;2022-09-13T19:01:27;21.90;99.90
22738;DHT22;11536;50.860;4.286;2022-09-13T19:03:58;21.90;99.90
22738;DHT22;11536;50.860;4.286;2022-09-13T19:08:52;21.90;99.90
22738;DHT22;11536;50.860;4.286;2022-09-13T19:11:19;21.90;99.90
22738;DHT22;11536;50.860;4.286;2022-09-13T19:13:45;21.80;99.90
22738;DHT22;11536;50.860;4.286;2022-09-13T19:16:13;21.80;99.90
22738;DHT22;11536;50.860;4.286;2022-09-13T19:18:41;21.80;99.90
22738;DHT22;11536;50.860;4.286;2022-09-13T19:21:14;21.80;99.90
22738;DHT22;11536;50.860;4.286;2022-09-13T19:23:42;21.80;99.90
22738;DHT22;11536;50.860;4.286;2022-09-13T19:26:13;21.80;99.90
22738;DHT22;11536;50.860;4.286;2022-09-13T19:28:53;21.80;99.90
22738;DHT22;11536;50.860;4.286;2022-09-13T19:31:25;21.80;99.90